Weather at Borovan Airstrip

Public forecast

Using degrees Celsius for public forecast. Weather courtesy of forecast.io.

Closest aviation weather report (METAR) to Borovan Airstrip

Closest report is Sofia Airport, 46.6 nm (86.3 km) SSW. Retrieved 2022/08/15 09:00 UTC (14 minutes ago):

LBSF 150900Z 29008KT 250V340 9999 BKN025 22/15 Q1011 NOSIG

Closest aviation forecast (TAF) to Borovan Airstrip

Closest forecast is Sofia Airport, 46.6 nm (86.3 km) SSW. Retrieved 2022/08/15 06:18 UTC (3 hours ago):

TAF LBSF 150500Z 1506/1606 VRB04KT 6000 SCT005 OVC015 BECMG 1506/1508 29010KT 9999 SCT010 BKN015 BECMG 1508/1510 SCT040 PROB30 TEMPO 1510/1515 TSRA FEW040CB BKN050 BECMG 1517/1519 VRB04KT CAVOK